Time;durP1;ratioP1;P1;durP2;ratioP2;P2;SDS_P1;SDS_P2;PMS_P1;PMS_P2;Temp;Humidity;BMP_temperature;BMP_pressure;BME280_temperature;BME280_humidity;BME280_pressure;Samples;Min_cycle;Max_cycle;Signal;HPM_P1;HPM_P2
2024/01/28 00:01:17;;;;;;;6.00;3.30;;;;;;;20.49;36.30;103380.09;4993609;28;20043;-68
2024/01/28 00:03:42;;;;;;;4.85;3.08;;;;;;;20.43;36.30;103369.97;4986379;28;20046;-68
2024/01/28 00:06:08;;;;;;;4.03;3.00;;;;;;;20.40;36.16;103363.09;4992585;28;20039;-69
2024/01/28 00:08:33;;;;;;;5.65;2.80;;;;;;;20.43;36.29;103370.81;4997474;28;20386;-68
2024/01/28 00:10:59;;;;;;;7.35;3.03;;;;;;;20.44;36.15;103379.59;4990235;28;20046;-68
2024/01/28 00:13:25;;;;;;;5.57;2.88;;;;;;;20.41;36.24;103385.16;4989415;28;20812;-68
2024/01/28 00:15:54;;;;;;;5.93;2.72;;;;;;;20.36;36.38;103384.66;5006878;28;20045;-68
2024/01/28 00:18:20;;;;;;;5.63;3.33;;;;;;;20.36;36.30;103379.34;4983429;28;20049;-68
2024/01/28 00:20:47;;;;;;;4.30;2.95;;;;;;;20.24;36.32;103349.41;4986556;28;20473;-68
2024/01/28 00:23:12;;;;;;;4.50;3.03;;;;;;;20.36;36.11;103377.53;4986823;28;21801;-68
2024/01/28 00:25:38;;;;;;;4.10;2.40;;;;;;;20.20;36.21;103353.25;4982492;28;20061;-69
2024/01/28 00:28:04;;;;;;;4.00;2.80;;;;;;;20.22;36.42;103360.09;4982733;28;20038;-68
2024/01/28 00:30:32;;;;;;;5.00;3.08;;;;;;;20.28;36.16;103366.72;4995689;28;20062;-68
2024/01/28 00:32:58;;;;;;;4.20;2.80;;;;;;;20.23;36.30;103350.38;5003390;28;20066;-70
2024/01/28 00:35:24;;;;;;;5.20;2.72;;;;;;;20.20;36.32;103364.69;4989656;28;20193;-70
2024/01/28 00:37:49;;;;;;;4.82;2.95;;;;;;;20.19;36.31;103368.28;4982168;28;20039;-71
2024/01/28 00:40:15;;;;;;;4.38;2.85;;;;;;;20.20;36.26;103362.03;4985756;28;20038;-71
2024/01/28 00:42:40;;;;;;;4.50;2.85;;;;;;;20.13;36.28;103349.44;4986947;28;20612;-70
2024/01/28 00:45:07;;;;;;;6.85;3.10;;;;;;;20.18;36.27;103356.03;4990276;28;20088;-68
2024/01/28 00:47:32;;;;;;;4.38;3.00;;;;;;;20.14;36.37;103359.03;4980138;28;20471;-69
2024/01/28 00:49:57;;;;;;;5.80;3.42;;;;;;;20.08;36.29;103355.06;4990895;28;20113;-69
2024/01/28 00:52:23;;;;;;;4.90;2.65;;;;;;;20.02;36.25;103346.78;4973258;28;20038;-69
2024/01/28 00:54:48;;;;;;;4.75;2.90;;;;;;;20.10;36.38;103366.34;4986777;28;20722;-69
2024/01/28 00:57:14;;;;;;;4.57;2.65;;;;;;;20.11;36.22;103362.78;4989183;28;20038;-68
2024/01/28 00:59:39;;;;;;;4.05;2.83;;;;;;;20.03;36.33;103351.94;4984763;28;20059;-69
2024/01/28 01:02:05;;;;;;;4.53;2.90;;;;;;;19.88;36.36;103337.25;4984407;28;20061;-69
2024/01/28 01:04:30;;;;;;;5.28;3.00;;;;;;;20.06;36.36;103356.13;4988106;28;20057;-69
2024/01/28 01:06:56;;;;;;;5.32;3.22;;;;;;;20.05;36.51;103357.94;4988452;28;20042;-69
2024/01/28 01:09:22;;;;;;;4.18;2.92;;;;;;;19.99;36.45;103345.22;4983047;28;20049;-68
2024/01/28 01:11:48;;;;;;;5.13;2.90;;;;;;;19.88;36.38;103326.69;4985243;28;20120;-68
2024/01/28 01:14:13;;;;;;;5.35;2.88;;;;;;;19.86;36.39;103315.38;4991252;28;20037;-69
2024/01/28 01:16:39;;;;;;;5.97;2.90;;;;;;;19.91;36.38;103331.72;4999311;28;20069;-67
2024/01/28 01:19:05;;;;;;;4.03;2.85;;;;;;;19.90;36.54;103330.88;4995496;28;20077;-68
2024/01/28 01:21:31;;;;;;;4.00;2.90;;;;;;;19.91;36.56;103340.50;4985646;28;20511;-68
2024/01/28 01:23:56;;;;;;;5.63;3.17;;;;;;;19.79;36.47;103317.69;4983207;28;20159;-68
2024/01/28 01:26:22;;;;;;;4.75;3.13;;;;;;;19.90;36.42;103335.34;4982949;28;20055;-69
2024/01/28 01:28:47;;;;;;;5.47;2.80;;;;;;;19.80;36.57;103311.44;4981891;28;20045;-68
2024/01/28 01:31:13;;;;;;;3.90;2.65;;;;;;;19.88;36.44;103326.69;4982459;28;20042;-68
2024/01/28 01:33:39;;;;;;;4.82;2.90;;;;;;;19.83;36.48;103319.13;4987467;28;20058;-68
2024/01/28 01:36:05;;;;;;;4.28;2.70;;;;;;;19.86;36.45;103318.03;4986314;28;20045;-68
2024/01/28 01:38:31;;;;;;;4.70;2.90;;;;;;;19.78;36.50;103310.72;4985565;28;20505;-68
2024/01/28 01:40:58;;;;;;;4.47;2.65;;;;;;;19.82;36.51;103313.97;4990295;28;20046;-68
2024/01/28 01:43:24;;;;;;;5.22;3.08;;;;;;;19.80;36.50;103318.53;4991838;28;20463;-68
2024/01/28 01:45:52;;;;;;;4.60;2.85;;;;;;;19.79;36.49;103314.19;4991383;28;20046;-67
2024/01/28 01:48:18;;;;;;;5.95;2.70;;;;;;;19.79;36.49;103314.19;4988891;28;20184;-68
2024/01/28 01:50:44;;;;;;;5.90;3.00;;;;;;;19.76;36.44;103304.72;4993145;28;20027;-68
2024/01/28 01:53:10;;;;;;;5.28;3.00;;;;;;;19.72;36.46;103292.66;4989934;28;20124;-68
2024/01/28 01:55:39;;;;;;;4.95;2.92;;;;;;;19.73;36.43;103288.22;4987857;28;20091;-69
2024/01/28 01:58:05;;;;;;;5.68;2.90;;;;;;;19.70;36.36;103275.25;5005289;28;20042;-68
2024/01/28 02:00:34;;;;;;;4.72;2.60;;;;;;;19.69;36.54;103277.06;4996452;28;20022;-68
2024/01/28 02:03:03;;;;;;;5.68;2.85;;;;;;;19.66;36.40;103271.16;4981978;28;20034;-68
2024/01/28 02:05:29;;;;;;;3.45;2.80;;;;;;;19.71;36.46;103288.34;4992550;28;20045;-68
2024/01/28 02:07:54;;;;;;;3.92;2.67;;;;;;;19.70;36.50;103285.81;4991954;28;20054;-68
2024/01/28 02:10:22;;;;;;;4.95;2.88;;;;;;;19.69;36.47;103287.63;4984864;28;20100;-68
2024/01/28 02:12:49;;;;;;;5.20;2.92;;;;;;;19.58;36.52;103264.69;4988317;28;20903;-68
2024/01/28 02:15:15;;;;;;;5.10;2.97;;;;;;;19.65;36.45;103277.41;4988946;28;20046;-69
2024/01/28 02:17:41;;;;;;;5.57;3.40;;;;;;;19.64;36.48;103267.81;5002381;28;20037;-69
2024/01/28 02:20:07;;;;;;;3.92;2.72;;;;;;;19.55;36.47;103253.47;4990607;28;20795;-68
2024/01/28 02:22:32;;;;;;;4.88;3.08;;;;;;;19.54;36.49;103251.81;4987383;28;20045;-68
2024/01/28 02:24:58;;;;;;;4.53;2.65;;;;;;;19.60;36.50;103264.56;4987528;28;20409;-68
2024/01/28 02:27:24;;;;;;;4.57;2.63;;;;;;;19.52;36.40;103251.06;4986392;28;20042;-69
2024/01/28 02:29:49;;;;;;;4.00;2.45;;;;;;;19.59;36.60;103269.00;4998613;28;20045;-69
2024/01/28 02:32:17;;;;;;;5.32;3.05;;;;;;;19.47;36.44;103254.06;4988667;28;20216;-69
2024/01/28 02:34:43;;;;;;;4.53;2.80;;;;;;;19.53;36.55;103256.22;4984091;28;20480;-69
2024/01/28 02:37:10;;;;;;;3.15;2.40;;;;;;;19.59;36.44;103260.25;4999340;28;20038;-68
2024/01/28 02:39:39;;;;;;;4.18;2.78;;;;;;;19.53;36.49;103260.66;4985756;28;20038;-69
2024/01/28 02:42:06;;;;;;;4.80;2.60;;;;;;;19.50;36.47;103248.53;4989973;28;20073;-69
2024/01/28 02:44:31;;;;;;;5.00;2.70;;;;;;;19.51;36.56;103254.66;4988600;28;20096;-69
2024/01/28 02:46:57;;;;;;;4.28;2.70;;;;;;;19.50;36.62;103248.53;4987895;28;20572;-69
2024/01/28 02:49:23;;;;;;;3.95;2.70;;;;;;;19.49;36.62;103254.78;4990277;28;20041;-69
2024/01/28 02:51:50;;;;;;;4.90;2.55;;;;;;;19.49;36.55;103260.06;4990479;28;20065;-69
2024/01/28 02:54:16;;;;;;;5.22;3.03;;;;;;;19.39;36.59;103243.25;4989934;28;20068;-69
2024/01/28 02:56:42;;;;;;;5.50;2.70;;;;;;;19.41;36.48;103240.50;4977634;28;20149;-69
2024/01/28 02:59:07;;;;;;;4.75;2.83;;;;;;;19.47;36.44;103240.00;4986244;28;20082;-69
2024/01/28 03:01:33;;;;;;;4.63;2.58;;;;;;;19.54;36.61;103246.53;4992531;28;20113;-69
2024/01/28 03:03:58;;;;;;;4.15;2.55;;;;;;;19.55;36.39;103246.41;4990360;28;20038;-68
2024/01/28 03:06:24;;;;;;;3.78;2.60;;;;;;;19.54;36.54;103242.06;4988185;28;20042;-69
2024/01/28 03:08:49;;;;;;;4.45;2.90;;;;;;;19.53;36.53;103232.44;4992800;28;20043;-69
2024/01/28 03:11:15;;;;;;;3.85;2.80;;;;;;;19.57;36.60;103223.38;5001196;28;20070;-69
2024/01/28 03:13:40;;;;;;;5.03;2.67;;;;;;;19.58;36.53;103218.91;4987601;28;20034;-69
2024/01/28 03:16:06;;;;;;;3.80;2.92;;;;;;;19.57;36.30;103209.31;4988147;28;20038;-69
2024/01/28 03:18:32;;;;;;;3.45;2.60;;;;;;;19.54;36.51;103198.94;4985989;28;20065;-69
2024/01/28 03:20:57;;;;;;;4.00;2.60;;;;;;;19.59;36.59;103191.53;4984201;28;20447;-69
2024/01/28 03:23:23;;;;;;;5.75;2.92;;;;;;;19.59;36.48;103194.16;4992154;28;20038;-69
2024/01/28 03:25:48;;;;;;;3.00;2.22;;;;;;;19.60;36.43;103193.19;4980611;28;20053;-69
2024/01/28 03:28:14;;;;;;;4.97;2.63;;;;;;;19.63;36.43;103189.47;4983558;28;20046;-69
2024/01/28 03:30:39;;;;;;;4.18;2.75;;;;;;;19.61;36.43;103186.94;5002838;28;20042;-69
2024/01/28 03:33:05;;;;;;;3.90;2.60;;;;;;;19.49;36.53;103172.03;4987771;28;20092;-69
2024/01/28 03:35:30;;;;;;;4.70;2.70;;;;;;;19.58;36.49;103188.03;5006483;28;20498;-69
2024/01/28 03:37:56;;;;;;;3.95;2.50;;;;;;;19.58;36.50;103189.84;4999809;28;20089;-69
2024/01/28 03:40:21;;;;;;;5.25;2.70;;;;;;;19.51;36.61;103184.16;4997189;28;20636;-69
2024/01/28 03:42:47;;;;;;;5.30;2.70;;;;;;;19.58;36.45;103195.97;4990131;28;20042;-69
2024/01/28 03:45:13;;;;;;;5.15;2.70;;;;;;;19.59;36.43;103195.00;4985209;28;20362;-68
2024/01/28 03:47:38;;;;;;;5.38;2.90;;;;;;;19.57;36.47;103199.56;4972256;28;20038;-69
2024/01/28 03:50:05;;;;;;;4.40;2.60;;;;;;;19.50;36.54;103185.09;4990285;28;20034;-69
2024/01/28 03:52:31;;;;;;;4.47;2.92;;;;;;;19.52;36.43;103187.63;4985482;28;20121;-70
2024/01/28 03:54:56;;;;;;;4.63;2.50;;;;;;;19.55;36.56;103190.06;4984746;28;20151;-69
2024/01/28 03:57:22;;;;;;;3.78;2.58;;;;;;;19.50;36.43;103184.28;4986317;28;20042;-69
2024/01/28 03:59:47;;;;;;;4.80;3.03;;;;;;;19.39;36.49;103166.63;4985151;28;20181;-70
2024/01/28 04:02:16;;;;;;;3.83;2.78;;;;;;;19.50;36.57;103195.69;4983841;28;20088;-69
2024/01/28 04:04:41;;;;;;;3.78;2.58;;;;;;;19.51;36.68;103196.53;4995885;28;20517;-69
2024/01/28 04:07:07;;;;;;;4.78;2.55;;;;;;;19.44;36.49;103187.41;4994395;28;20046;-69
2024/01/28 04:09:33;;;;;;;4.93;2.75;;;;;;;19.50;36.43;103194.84;4993202;28;20359;-69
2024/01/28 04:12:03;;;;;;;4.22;2.60;;;;;;;19.44;36.45;103195.34;4988190;28;20145;-69
2024/01/28 04:14:28;;;;;;;4.82;2.60;;;;;;;19.43;36.59;103191.84;4989775;28;20124;-69
2024/01/28 04:16:54;;;;;;;3.30;2.60;;;;;;;19.47;36.82;103198.56;4990502;28;20035;-70
2024/01/28 04:19:19;;;;;;;4.53;2.83;;;;;;;19.40;36.54;103176.25;4989935;28;20058;-69
2024/01/28 04:21:45;;;;;;;5.95;2.60;;;;;;;19.51;36.37;103193.88;5000786;28;20066;-68
2024/01/28 04:24:10;;;;;;;3.72;2.70;;;;;;;19.48;36.45;103194.13;4982745;28;20085;-68
2024/01/28 04:26:36;;;;;;;5.72;2.92;;;;;;;19.43;36.39;103175.16;4991085;28;20470;-69
2024/01/28 04:29:01;;;;;;;5.65;2.90;;;;;;;19.37;36.42;103165.88;5004118;28;20043;-69
2024/01/28 04:31:27;;;;;;;3.90;2.85;;;;;;;19.43;36.57;103173.34;4984897;28;20077;-69
2024/01/28 04:33:57;;;;;;;4.63;2.50;;;;;;;19.46;36.51;103175.75;4983649;28;20038;-69
2024/01/28 04:36:25;;;;;;;6.75;2.88;;;;;;;19.34;36.47;103158.22;4985144;28;20121;-69
2024/01/28 04:38:51;;;;;;;4.80;2.97;;;;;;;19.37;36.32;103155.31;4987737;28;20083;-69
2024/01/28 04:41:17;;;;;;;5.45;2.92;;;;;;;19.42;36.35;103155.81;4984788;28;20026;-69
2024/01/28 04:43:42;;;;;;;3.88;2.50;;;;;;;19.48;36.28;103150.03;4984174;28;20471;-69
2024/01/28 04:46:08;;;;;;;4.03;2.65;;;;;;;19.55;36.30;103150.41;4988614;28;20042;-69
2024/01/28 04:48:35;;;;;;;5.97;2.60;;;;;;;19.52;36.48;103143.53;5000922;28;20065;-69
2024/01/28 04:51:00;;;;;;;4.70;2.80;;;;;;;19.57;36.28;103146.72;4985117;28;20085;-68
2024/01/28 04:53:26;;;;;;;5.43;2.80;;;;;;;19.53;36.38;103141.75;4988339;28;20089;-69
2024/01/28 04:55:52;;;;;;;4.35;2.78;;;;;;;19.46;36.30;103132.63;4982153;28;20035;-69
2024/01/28 04:58:17;;;;;;;5.80;2.80;;;;;;;19.44;36.34;103131.91;4982198;28;20054;-69
2024/01/28 05:00:43;;;;;;;4.90;3.13;;;;;;;19.49;36.41;103141.16;4987153;28;20052;-69
2024/01/28 05:03:08;;;;;;;5.03;2.95;;;;;;;19.43;36.38;103123.16;4985973;28;20049;-69
2024/01/28 05:05:34;;;;;;;4.72;2.58;;;;;;;19.42;36.44;103125.91;4985824;28;20050;-69
2024/01/28 05:07:59;;;;;;;6.25;2.70;;;;;;;19.45;36.44;103133.59;5002540;28;20046;-69
2024/01/28 05:10:26;;;;;;;4.95;2.55;;;;;;;19.34;36.41;103118.56;4985644;28;20375;-69
2024/01/28 05:12:51;;;;;;;5.38;2.60;;;;;;;19.40;36.32;103119.91;4988925;28;20786;-69
2024/01/28 05:15:17;;;;;;;4.55;2.50;;;;;;;19.41;36.48;103125.06;4993850;28;20173;-69
2024/01/28 05:17:44;;;;;;;5.35;2.60;;;;;;;19.41;36.54;103124.25;4987760;28;20124;-69
2024/01/28 05:20:11;;;;;;;4.10;2.60;;;;;;;19.32;36.50;103112.56;4989106;28;20048;-68
2024/01/28 05:22:40;;;;;;;4.30;2.60;;;;;;;19.40;36.46;103119.91;4993113;28;20034;-69
2024/01/28 05:25:06;;;;;;;6.72;2.97;;;;;;;19.36;36.51;103119.28;4993853;28;20522;-69
2024/01/28 05:27:32;;;;;;;3.42;2.72;;;;;;;19.37;36.51;103109.56;4989495;28;20068;-70
2024/01/28 05:29:58;;;;;;;4.07;2.45;;;;;;;19.39;36.68;103116.44;5008373;28;20484;-69
2024/01/28 05:32:27;;;;;;;5.10;2.72;;;;;;;19.33;36.56;103093.97;4989063;28;20524;-68
2024/01/28 05:34:54;;;;;;;4.30;2.70;;;;;;;19.37;36.33;103094.56;4990175;28;20045;-68
2024/01/28 05:37:20;;;;;;;5.60;3.10;;;;;;;19.37;36.48;103099.84;4986590;28;20058;-69
2024/01/28 05:39:45;;;;;;;3.63;2.65;;;;;;;19.40;36.53;103096.13;4992474;28;20053;-68
2024/01/28 05:42:11;;;;;;;4.25;2.78;;;;;;;19.43;36.37;103103.81;5005315;28;20042;-69
2024/01/28 05:44:37;;;;;;;3.85;2.80;;;;;;;19.39;36.40;103095.28;4988377;28;20038;-69
2024/01/28 05:47:03;;;;;;;4.43;2.45;;;;;;;19.42;36.42;103095.03;4994909;28;20065;-69
2024/01/28 05:49:29;;;;;;;4.55;2.58;;;;;;;19.36;36.57;103097.31;4986293;28;20447;-69
2024/01/28 05:51:54;;;;;;;4.60;2.67;;;;;;;19.41;36.53;103106.56;4991766;28;20046;-69
2024/01/28 05:54:21;;;;;;;4.43;2.35;;;;;;;19.41;36.40;103103.09;4985993;28;20062;-69
2024/01/28 05:56:47;;;;;;;3.60;2.60;;;;;;;19.34;36.66;103102.72;4987642;28;20042;-69
2024/01/28 05:59:13;;;;;;;4.40;2.42;;;;;;;19.41;36.46;103101.28;4990126;28;20038;-69
2024/01/28 06:01:39;;;;;;;4.80;2.83;;;;;;;19.33;36.46;103096.59;4994468;28;20034;-69
2024/01/28 06:04:05;;;;;;;4.20;2.40;;;;;;;19.32;36.58;103102.84;5006255;28;20034;-69
2024/01/28 06:06:30;;;;;;;4.88;2.67;;;;;;;19.38;36.55;103104.16;4999700;28;20046;-69
2024/01/28 06:08:56;;;;;;;4.07;2.78;;;;;;;19.36;36.62;103092.03;5006797;28;20050;-68
2024/01/28 06:11:22;;;;;;;3.47;2.50;;;;;;;19.35;36.64;103101.75;4988114;28;20042;-69
2024/01/28 06:13:47;;;;;;;4.32;2.63;;;;;;;19.35;36.42;103107.03;4987791;28;20092;-69
2024/01/28 06:16:13;;;;;;;3.63;2.35;;;;;;;19.32;36.66;103102.84;4989677;28;20479;-69
2024/01/28 06:18:43;;;;;;;3.55;2.38;;;;;;;19.31;36.74;103103.81;4990808;28;20715;-69
2024/01/28 06:21:12;;;;;;;2.90;2.25;;;;;;;19.25;36.67;103101.66;4988436;28;21076;-69
2024/01/28 06:23:38;;;;;;;3.63;2.30;;;;;;;19.29;36.71;103104.91;4986789;28;20050;-69
2024/01/28 06:26:04;;;;;;;6.63;2.65;;;;;;;19.07;36.62;103070.59;5001170;28;20170;-69
2024/01/28 06:28:30;;;;;;;4.60;2.33;;;;;;;19.25;36.83;103114.88;4992293;28;20049;-70
2024/01/28 06:30:55;;;;;;;3.85;2.30;;;;;;;19.21;36.83;103110.81;5004507;28;21186;-69
2024/01/28 06:33:21;;;;;;;4.68;2.22;;;;;;;19.23;36.78;103108.88;4987788;28;20563;-69
2024/01/28 06:35:46;;;;;;;3.45;2.40;;;;;;;19.21;36.82;103107.28;5015561;28;20049;-69
2024/01/28 06:38:12;;;;;;;3.38;2.60;;;;;;;19.06;36.81;103077.66;4996499;28;20046;-69
2024/01/28 06:40:37;;;;;;;2.47;2.13;;;;;;;19.21;36.88;103105.50;4988414;28;20034;-69
2024/01/28 06:43:03;;;;;;;3.25;2.30;;;;;;;19.18;36.86;103099.59;4987838;28;20046;-69
2024/01/28 06:45:29;;;;;;;4.97;2.75;;;;;;;19.21;36.80;103107.28;4986682;28;20149;-68
2024/01/28 06:47:55;;;;;;;5.65;3.05;;;;;;;19.20;36.91;103108.25;4985454;28;20800;-69
2024/01/28 06:50:21;;;;;;;4.97;2.70;;;;;;;19.15;36.81;103100.69;4979230;28;20521;-69
2024/01/28 06:52:48;;;;;;;3.05;2.28;;;;;;;19.19;36.86;103102.13;4988327;28;20034;-68
2024/01/28 06:55:13;;;;;;;4.78;2.67;;;;;;;19.27;36.67;103112.09;4991263;28;20143;-68
2024/01/28 06:57:39;;;;;;;4.20;2.47;;;;;;;19.31;36.22;103092.41;4990337;28;20843;-68
2024/01/28 07:00:10;;;;;;;3.85;2.50;;;;;;;19.51;36.29;103106.66;4985572;28;20080;-69
2024/01/28 07:02:35;;;;;;;3.80;2.55;;;;;;;19.50;36.12;103094.41;4987195;28;20493;-69
2024/01/28 07:05:01;;;;;;;4.00;2.70;;;;;;;19.60;36.12;103101.53;4991401;28;20045;-69
2024/01/28 07:07:27;;;;;;;4.50;2.47;;;;;;;19.79;35.84;103100.03;4994165;28;20034;-69
2024/01/28 07:09:52;;;;;;;3.38;2.30;;;;;;;19.85;35.76;103079.22;5008196;28;20041;-69
2024/01/28 07:12:18;;;;;;;4.15;2.75;;;;;;;20.09;35.61;103096.69;4990472;28;20037;-69
2024/01/28 07:14:43;;;;;;;4.65;2.65;;;;;;;20.06;35.66;103094.28;4986029;28;20093;-70
2024/01/28 07:17:09;;;;;;;3.40;2.50;;;;;;;20.10;35.58;103093.91;4983787;28;20765;-69
2024/01/28 07:19:35;;;;;;;3.58;2.45;;;;;;;20.08;35.74;103095.00;4990210;28;20050;-69
2024/01/28 07:22:01;;;;;;;3.47;2.30;;;;;;;19.96;35.80;103098.66;4985267;28;20104;-69
2024/01/28 07:24:27;;;;;;;4.47;2.63;;;;;;;19.85;35.78;103083.66;4984887;28;20467;-69
2024/01/28 07:26:52;;;;;;;3.22;2.40;;;;;;;19.91;35.87;103084.00;5001652;28;20054;-69
2024/01/28 07:29:18;;;;;;;4.43;2.50;;;;;;;19.81;35.99;103072.50;4985787;28;20046;-69
2024/01/28 07:31:43;;;;;;;4.50;2.60;;;;;;;19.87;36.02;103074.66;4981154;28;20037;-69
2024/01/28 07:34:09;;;;;;;3.60;2.50;;;;;;;19.79;35.97;103058.59;4986417;28;20033;-69
2024/01/28 07:36:34;;;;;;;4.15;2.53;;;;;;;19.81;35.98;103059.28;5003505;28;20081;-69
2024/01/28 07:39:00;;;;;;;3.90;2.50;;;;;;;19.88;35.93;103072.84;4981806;28;20052;-69
2024/01/28 07:41:26;;;;;;;3.33;2.70;;;;;;;19.79;36.07;103058.59;4989771;28;20049;-69
2024/01/28 07:43:51;;;;;;;4.07;2.58;;;;;;;19.70;36.05;103061.13;4986088;28;20037;-69
2024/01/28 07:46:18;;;;;;;7.18;3.47;;;;;;;19.85;36.07;103081.88;4984414;28;20042;-70
2024/01/28 07:48:43;;;;;;;8.23;3.60;;;;;;;19.87;36.15;103076.44;4987550;28;20076;-69
2024/01/28 07:51:08;;;;;;;6.07;3.65;;;;;;;19.83;35.91;103053.88;4987205;28;20030;-69
2024/01/28 07:53:34;;;;;;;6.93;3.83;;;;;;;19.90;36.00;103068.25;4981738;28;20070;-69
2024/01/28 07:56:02;;;;;;;4.13;3.08;;;;;;;20.09;35.57;103078.16;5001110;28;20050;-69
2024/01/28 07:58:28;;;;;;;7.97;3.80;;;;;;;20.14;35.46;103074.19;4984609;28;20057;-69
2024/01/28 08:00:54;;;;;;;5.78;3.60;;;;;;;20.26;35.22;103074.94;4982964;28;20046;-68
2024/01/28 08:03:21;;;;;;;8.55;3.40;;;;;;;20.26;35.15;103061.72;4996488;28;20042;-69
2024/01/28 08:05:47;;;;;;;7.95;3.70;;;;;;;20.40;35.04;103073.81;5005642;28;20052;-68
2024/01/28 08:08:12;;;;;;;5.75;3.38;;;;;;;20.44;35.10;103072.59;4987706;28;20034;-69
2024/01/28 08:10:38;;;;;;;8.68;3.70;;;;;;;20.48;34.69;103074.03;4986368;28;20049;-69
2024/01/28 08:13:04;;;;;;;5.32;3.30;;;;;;;20.35;34.83;103078.66;4987082;28;20038;-69
2024/01/28 08:15:30;;;;;;;6.80;3.55;;;;;;;20.14;35.09;103074.19;4967168;28;20057;-67
2024/01/28 08:17:56;;;;;;;4.68;3.17;;;;;;;20.12;35.64;103084.06;4984109;28;20046;-68
2024/01/28 08:20:22;;;;;;;6.35;2.95;;;;;;;20.01;35.69;103064.75;4978890;28;20052;-68
2024/01/28 08:22:47;;;;;;;7.20;3.55;;;;;;;20.05;35.65;103061.72;4997855;28;20038;-68
2024/01/28 08:25:13;;;;;;;6.10;3.30;;;;;;;20.07;35.63;103057.13;4983409;28;21461;-68
2024/01/28 08:27:39;;;;;;;5.35;2.88;;;;;;;19.98;35.70;103042.03;4984055;28;20609;-68
2024/01/28 08:30:06;;;;;;;4.88;3.15;;;;;;;20.10;35.61;103061.31;4982480;28;20049;-68
2024/01/28 08:32:32;;;;;;;4.95;3.00;;;;;;;19.79;35.61;103011.00;4982011;28;20126;-68
2024/01/28 08:34:57;;;;;;;4.57;2.75;;;;;;;20.08;35.67;103056.16;4987013;28;20442;-68
2024/01/28 08:37:23;;;;;;;5.70;3.50;;;;;;;20.08;35.74;103042.94;4977368;28;20046;-68
2024/01/28 08:39:48;;;;;;;5.80;3.10;;;;;;;20.02;35.66;103029.41;4982309;28;20034;-68
2024/01/28 08:42:15;;;;;;;5.75;3.13;;;;;;;20.04;35.71;103025.66;4983967;28;20042;-68
2024/01/28 08:44:41;;;;;;;6.05;3.33;;;;;;;20.02;35.67;103016.19;4983842;28;20057;-68
2024/01/28 08:47:07;;;;;;;4.72;3.03;;;;;;;20.12;35.53;103031.16;4978436;28;20049;-68
2024/01/28 08:49:32;;;;;;;5.55;2.70;;;;;;;20.18;35.52;103032.44;4983027;28;20050;-68
2024/01/28 08:51:58;;;;;;;4.15;2.70;;;;;;;20.18;35.33;103040.38;4999928;28;20053;-68
2024/01/28 08:54:24;;;;;;;5.50;3.03;;;;;;;20.08;35.50;103021.78;4986372;28;20030;-69
2024/01/28 08:56:50;;;;;;;5.28;2.90;;;;;;;20.21;35.54;103026.88;4980962;28;20129;-69
2024/01/28 08:59:16;;;;;;;3.90;2.75;;;;;;;20.22;35.46;103036.50;4983770;28;20044;-69
2024/01/28 09:01:42;;;;;;;5.97;2.92;;;;;;;20.13;35.38;103011.69;4991583;28;20039;-69
2024/01/28 09:04:09;;;;;;;4.45;2.67;;;;;;;20.00;35.54;102984.56;4987953;28;20056;-68
2024/01/28 09:06:35;;;;;;;5.53;3.00;;;;;;;20.02;35.58;102997.66;4983492;28;20046;-68
2024/01/28 09:09:04;;;;;;;5.93;3.13;;;;;;;20.17;35.49;103017.53;5004318;28;20050;-69
2024/01/28 09:11:31;;;;;;;4.15;2.58;;;;;;;20.15;35.48;103011.53;4991590;28;20034;-69
2024/01/28 09:13:58;;;;;;;5.75;2.92;;;;;;;20.12;35.61;103003.88;4987377;28;20042;-68
2024/01/28 09:16:23;;;;;;;5.70;2.95;;;;;;;20.12;35.63;103003.88;5003208;28;20039;-67
2024/01/28 09:18:49;;;;;;;4.88;2.70;;;;;;;20.05;35.67;102997.41;4984458;28;21330;-68
2024/01/28 09:21:14;;;;;;;6.07;2.90;;;;;;;20.04;35.59;102991.28;4985422;28;20046;-68
2024/01/28 09:23:40;;;;;;;4.95;2.90;;;;;;;20.10;35.62;102995.19;4986900;28;20101;-67
2024/01/28 09:26:05;;;;;;;4.00;2.60;;;;;;;20.08;35.64;102990.03;4984953;28;20209;-68
2024/01/28 09:28:31;;;;;;;4.50;2.83;;;;;;;20.02;35.99;102984.44;4986915;28;20084;-68
2024/01/28 09:30:57;;;;;;;3.88;2.60;;;;;;;20.02;35.95;102993.22;4982852;28;20053;-68
2024/01/28 09:33:22;;;;;;;4.28;2.70;;;;;;;19.98;35.79;102983.88;4984128;28;20038;-68
2024/01/28 09:35:52;;;;;;;6.10;3.05;;;;;;;19.95;36.00;102991.22;5000303;28;20108;-68
2024/01/28 09:38:21;;;;;;;5.18;2.90;;;;;;;20.00;35.93;102996.97;4986131;28;20042;-68
2024/01/28 09:40:47;;;;;;;4.75;2.85;;;;;;;19.94;35.83;102979.81;4987963;28;20077;-68
2024/01/28 09:43:38;;;;;;;6.40;3.13;;;;;;;19.94;35.93;102985.09;4985452;28;20042;-67
2024/01/28 09:46:04;;;;;;;6.20;3.10;;;;;;;19.91;35.93;102983.53;4975999;28;20042;-67
2024/01/28 09:48:30;;;;;;;6.63;2.90;;;;;;;19.91;35.97;102982.69;4995814;28;20521;-67
2024/01/28 09:50:55;;;;;;;3.97;2.67;;;;;;;19.86;35.90;102979.59;4989052;28;20061;-67
2024/01/28 09:53:21;;;;;;;3.78;2.75;;;;;;;19.95;35.92;102985.94;4985261;28;20093;-67
2024/01/28 09:55:47;;;;;;;5.20;2.67;;;;;;;19.87;35.66;102960.13;4985661;28;20054;-67
2024/01/28 09:58:12;;;;;;;6.30;3.30;;;;;;;20.00;35.77;102978.44;4979602;28;20144;-67
2024/01/28 10:00:38;;;;;;;6.40;2.88;;;;;;;20.07;35.74;102958.44;4979148;28;20112;-67
2024/01/28 10:03:04;;;;;;;4.32;2.72;;;;;;;20.20;35.55;102970.50;4978416;28;20594;-67
2024/01/28 10:05:30;;;;;;;4.80;3.17;;;;;;;20.23;35.57;102966.75;4985100;28;20129;-67
2024/01/28 10:08:04;;;;;;;3.83;3.20;;;;;;;20.35;35.37;102965.72;5000865;28;20030;-67
2024/01/28 10:10:32;;;;;;;3.67;2.55;;;;;;;20.37;35.20;102963.75;4987238;28;20038;-67
2024/01/28 10:12:57;;;;;;;4.40;2.65;;;;;;;20.39;35.24;102958.34;4987788;28;20117;-66
2024/01/28 10:15:27;;;;;;;6.03;2.85;;;;;;;20.43;35.22;102968.56;4987115;28;20044;-66
2024/01/28 10:17:53;;;;;;;4.53;2.97;;;;;;;20.38;35.48;102961.94;4984917;28;20626;-66
2024/01/28 10:20:23;;;;;;;4.63;2.95;;;;;;;20.41;35.53;102964.38;4983209;28;20076;-65
2024/01/28 10:22:48;;;;;;;;;;;;;;;20.43;35.58;102957.97;4982793;28;20042;-66
2024/01/28 10:25:16;;;;;;;4.10;2.95;;;;;;;20.32;35.59;102943.97;4983493;28;19956;-66
2024/01/28 10:27:43;;;;;;;3.38;2.78;;;;;;;20.37;35.71;102941.75;4982816;28;20043;-66
2024/01/28 10:30:11;;;;;;;5.07;2.78;;;;;;;20.42;35.66;102942.22;4986765;28;20529;-66
2024/01/28 10:32:37;;;;;;;4.65;2.50;;;;;;;20.44;35.61;102949.06;4982834;28;20443;-66
2024/01/28 10:35:07;;;;;;;3.72;2.58;;;;;;;20.40;35.79;102950.25;4987563;28;20054;-66
2024/01/28 10:37:34;;;;;;;4.60;2.55;;;;;;;20.37;35.65;102945.25;4985321;28;20038;-66
2024/01/28 10:40:06;;;;;;;4.68;2.75;;;;;;;20.32;35.92;102934.22;4982691;28;20061;-66
2024/01/28 10:42:39;;;;;;;4.80;2.55;;;;;;;20.32;35.88;102943.97;4984188;28;20113;-65
2024/01/28 10:45:09;;;;;;;3.65;2.70;;;;;;;20.18;35.99;102927.47;4983106;28;20050;-65
2024/01/28 10:47:36;;;;;;;3.63;2.60;;;;;;;20.26;35.69;102934.72;4980440;28;20038;-65
2024/01/28 10:50:07;;;;;;;4.35;2.65;;;;;;;20.26;35.86;102916.22;4985652;28;20558;-65
2024/01/28 10:52:34;;;;;;;3.75;2.53;;;;;;;20.39;35.78;102942.47;4982223;28;20522;-65
2024/01/28 10:55:00;;;;;;;4.18;2.40;;;;;;;20.43;35.67;102936.78;4982575;28;20026;-66
2024/01/28 10:57:27;;;;;;;4.18;2.38;;;;;;;20.39;35.85;102922.13;4982855;28;20176;-66
2024/01/28 10:59:53;;;;;;;4.95;2.55;;;;;;;20.46;35.71;102933.03;4981741;28;20324;-66
2024/01/28 11:02:20;;;;;;;4.20;2.30;;;;;;;20.41;35.71;102922.88;4988569;28;20124;-65
2024/01/28 11:04:46;;;;;;;5.18;2.63;;;;;;;20.35;35.75;102914.59;4983393;28;20053;-65
2024/01/28 11:07:12;;;;;;;4.18;2.50;;;;;;;20.36;35.85;102918.91;4981376;28;20373;-66
2024/01/28 11:09:38;;;;;;;5.20;2.60;;;;;;;20.28;35.88;102913.44;4982197;28;20418;-66
2024/01/28 11:12:04;;;;;;;4.90;3.00;;;;;;;20.35;36.03;102919.88;4982070;28;20034;-65
2024/01/28 11:14:30;;;;;;;3.65;2.53;;;;;;;20.32;35.92;102918.34;4988231;28;20042;-65
2024/01/28 11:16:56;;;;;;;3.92;2.50;;;;;;;20.23;36.06;102904.09;4986132;28;20053;-65
2024/01/28 11:19:27;;;;;;;4.82;2.42;;;;;;;20.29;35.98;102901.88;4983517;28;20046;-66